Time;durP1;ratioP1;P1;durP2;ratioP2;P2;SDS_P1;SDS_P2;PMS_P1;PMS_P2;Temp;Humidity;BMP_temperature;BMP_pressure;BME280_temperature;BME280_humidity;BME280_pressure;Samples;Min_cycle;Max_cycle;Signal;HPM_P1;HPM_P2
2023/08/12 00:02:08;;;;;;;;;22.20;20.40;;;;;17.65;44.17;99919.34;5054781;28;8864;-83
2023/08/12 00:04:37;;;;;;;;;21.80;18.20;;;;;17.66;44.32;99925.53;5072125;28;8858;-75
2023/08/12 00:07:07;;;;;;;;;15.60;15.00;;;;;17.61;44.48;99925.75;5105462;27;8937;-75
2023/08/12 00:09:36;;;;;;;;;17.60;15.80;;;;;17.61;44.46;99924.88;5106157;28;8962;-77
2023/08/12 00:12:05;;;;;;;;;16.20;14.40;;;;;17.60;44.59;99920.50;5090354;28;8831;-81
2023/08/12 00:14:34;;;;;;;;;16.40;15.80;;;;;17.57;44.85;99917.03;5090249;28;8827;-77
2023/08/12 00:17:03;;;;;;;;;14.40;14.40;;;;;17.55;44.67;99924.22;5090958;28;8859;-76
2023/08/12 00:19:32;;;;;;;;;15.60;15.40;;;;;17.54;44.59;99917.16;5089505;28;8836;-79
2023/08/12 00:22:01;;;;;;;;;15.40;13.80;;;;;17.53;44.75;99919.88;5074455;28;8873;-81
2023/08/12 00:24:32;;;;;;;;;15.40;15.00;;;;;17.49;44.79;99910.31;5110233;28;8845;-76
2023/08/12 00:27:00;;;;;;;;;17.20;16.60;;;;;17.46;44.72;99918.44;5110189;28;8941;-76
2023/08/12 00:29:29;;;;;;;;;16.60;15.20;;;;;17.47;44.60;99922.81;5058882;28;8833;-76
2023/08/12 00:32:00;;;;;;;;;16.20;15.60;;;;;17.47;44.87;99913.03;5108681;28;8864;-77
2023/08/12 00:34:29;;;;;;;;;16.20;15.40;;;;;17.47;44.82;99915.69;5108645;28;8833;-80
2023/08/12 00:36:58;;;;;;;;;16.60;15.60;;;;;17.44;44.78;99913.19;5109624;28;8853;-76
2023/08/12 00:39:27;;;;;;;;;17.60;16.20;;;;;17.44;44.92;99914.97;5089965;28;8895;-76
2023/08/12 00:41:57;;;;;;;;;17.00;16.20;;;;;17.44;45.01;99912.31;5109220;28;8853;-76
2023/08/12 00:44:26;;;;;;;;;15.60;14.80;;;;;17.44;45.19;99907.00;5108862;28;8849;-76
2023/08/12 00:46:56;;;;;;;;;15.40;14.80;;;;;17.43;45.04;99913.25;5110160;28;8945;-81
2023/08/12 00:49:26;;;;;;;;;15.60;14.60;;;;;17.38;45.06;99911.66;5096320;28;8845;-76
2023/08/12 00:51:56;;;;;;;;;14.80;14.80;;;;;17.26;45.52;99911.31;5090745;28;8849;-76
2023/08/12 00:54:27;;;;;;;;;15.60;15.60;;;;;17.31;45.51;99912.88;5072294;28;9618;-77
2023/08/12 00:56:58;;;;;;;;;15.00;15.00;;;;;17.28;45.44;99909.47;5089063;28;8847;-78
2023/08/12 00:59:27;;;;;;;;;10.00;10.00;;;;;17.27;45.75;99905.06;5072180;28;8897;-78
2023/08/12 01:01:56;;;;;;;;;16.40;16.40;;;;;17.26;45.49;99901.56;5088570;28;8856;-78
2023/08/12 01:04:25;;;;;;;;;14.20;14.20;;;;;17.25;45.59;99905.16;5088177;28;8874;-76
2023/08/12 01:06:53;;;;;;;;;14.60;14.40;;;;;17.24;45.71;99902.53;5089287;28;8871;-76
2023/08/12 01:09:23;;;;;;;;;20.60;20.60;;;;;17.20;45.70;99905.31;5088021;28;8924;-76
2023/08/12 01:11:58;;;;;;;;;17.60;16.60;;;;;17.24;45.68;99897.22;5053984;28;8839;-78
2023/08/12 01:14:34;;;;;;;;;16.00;14.80;;;;;17.23;45.63;99908.75;5120219;27;8833;-76
2023/08/12 01:17:08;;;;;;;;;19.00;16.20;;;;;17.20;45.74;99913.28;5110873;27;9039;-79
2023/08/12 01:19:40;;;;;;;;;16.80;15.80;;;;;17.21;45.78;99911.47;5110503;27;8972;-76
2023/08/12 01:22:11;;;;;;;;;19.20;16.40;;;;;17.22;46.04;99905.25;5066709;28;8875;-77
2023/08/12 01:24:42;;;;;;;;;14.20;14.00;;;;;17.24;45.90;99902.53;5049609;28;8860;-79
2023/08/12 01:27:13;;;;;;;;;18.20;16.40;;;;;17.14;46.01;99908.22;5065946;28;8899;-77
2023/08/12 01:29:46;;;;;;;;;16.60;16.60;;;;;17.14;46.15;99907.38;5039781;28;8828;-76
2023/08/12 01:32:26;;;;;;;;;18.60;17.60;;;;;17.18;46.10;99906.31;5049863;28;8859;-77
2023/08/12 01:35:02;;;;;;;;;16.80;16.40;;;;;17.16;46.32;99906.38;5025582;28;8844;-79
2023/08/12 01:37:33;;;;;;;;;16.60;16.60;;;;;17.12;46.25;99911.91;5025758;28;8967;-77
2023/08/12 01:40:05;;;;;;;;;17.80;16.00;;;;;17.11;46.39;99915.47;5010304;28;8840;-77
2023/08/12 01:42:35;;;;;;;;;15.80;15.20;;;;;17.05;46.17;99908.63;4993609;28;8864;-77
2023/08/12 01:45:05;;;;;;;;;15.40;15.40;;;;;17.07;46.60;99903.25;5004167;28;8870;-79
2023/08/12 01:47:34;;;;;;;;;16.40;15.80;;;;;17.06;46.45;99906.81;5021417;28;8858;-77
2023/08/12 01:50:04;;;;;;;;;20.20;19.20;;;;;17.04;46.49;99903.38;5003202;28;8857;-76
2023/08/12 01:52:32;;;;;;;;;16.80;16.80;;;;;17.03;46.63;99905.16;4986511;28;8845;-77
2023/08/12 01:55:03;;;;;;;;;16.60;16.60;;;;;17.03;46.69;99909.63;4986668;28;8899;-80
2023/08/12 01:57:32;;;;;;;;;16.60;16.20;;;;;17.03;46.86;99905.16;4986590;28;8849;-76
2023/08/12 02:00:02;;;;;;;;;16.40;16.40;;;;;17.00;47.08;99906.16;5036475;28;8867;-76
2023/08/12 02:02:45;;;;;;;;;19.60;19.60;;;;;16.99;46.77;99914.19;5010318;28;9455;-77
2023/08/12 02:05:15;;;;;;;;;20.20;19.80;;;;;16.98;47.15;99912.44;5034462;28;8849;-76
2023/08/12 02:07:44;;;;;;;;;15.40;15.40;;;;;16.97;46.92;99916.06;5121275;27;8868;-77
2023/08/12 02:10:15;;;;;;;;;16.40;16.40;;;;;16.94;47.18;99910.84;5107799;28;8867;-77
2023/08/12 02:12:44;;;;;;;;;23.20;20.20;;;;;16.92;47.43;99902.09;5109073;28;9026;-76
2023/08/12 02:15:13;;;;;;;;;19.40;18.20;;;;;16.90;47.34;99911.91;5110160;28;8884;-79
2023/08/12 02:17:42;;;;;;;;;22.80;21.80;;;;;16.89;47.37;99911.06;5111605;28;8859;-77
2023/08/12 02:20:12;;;;;;;;;21.80;19.40;;;;;16.90;47.53;99917.22;5110743;28;8849;-76
2023/08/12 02:22:40;;;;;;;;;18.80;18.00;;;;;16.78;47.27;99915.94;5088913;28;8829;-77
2023/08/12 02:25:09;;;;;;;;;17.80;16.40;;;;;16.77;47.69;99916.88;5056063;28;8853;-76
2023/08/12 02:27:42;;;;;;;;;19.80;19.60;;;;;16.77;48.13;99914.22;5090205;28;9646;-76
2023/08/12 02:30:12;;;;;;;;;22.00;22.00;;;;;16.74;47.90;99917.00;5056973;28;8860;-78
2023/08/12 02:32:43;;;;;;;;;23.40;20.00;;;;;16.74;47.86;99923.19;5072719;28;8841;-77
2023/08/12 02:35:12;;;;;;;;;26.00;22.80;;;;;16.75;48.02;99919.56;5074701;28;8845;-80
2023/08/12 02:37:41;;;;;;;;;18.60;18.00;;;;;16.68;48.31;99917.22;5089682;28;8858;-76
2023/08/12 02:40:11;;;;;;;;;21.40;20.80;;;;;16.65;48.19;99918.22;5056027;28;8849;-76
2023/08/12 02:42:41;;;;;;;;;20.40;19.00;;;;;16.66;48.42;99921.75;5089418;28;8863;-78
2023/08/12 02:45:11;;;;;;;;;23.40;20.20;;;;;16.64;48.43;99921.78;5055721;28;8866;-77
2023/08/12 02:47:39;;;;;;;;;21.40;19.20;;;;;16.63;48.59;99924.53;5056634;28;8862;-76
2023/08/12 02:50:09;;;;;;;;;20.40;20.40;;;;;16.62;48.59;99921.00;5089760;28;8842;-77
2023/08/12 02:52:38;;;;;;;;;20.80;19.40;;;;;16.61;48.49;99921.94;5072160;28;8862;-77
2023/08/12 02:55:08;;;;;;;;;16.00;13.00;;;;;16.57;48.72;99918.53;5085411;28;8874;-76
2023/08/12 02:57:36;;;;;;;;;21.60;20.20;;;;;16.57;48.59;99912.38;5068485;28;8848;-77
2023/08/12 03:00:08;;;;;;;;;23.20;22.00;;;;;16.58;48.66;99919.41;5077431;28;8847;-76
2023/08/12 03:02:37;;;;;;;;;18.00;16.40;;;;;16.54;48.78;99920.44;5073506;28;8960;-76
2023/08/12 03:05:07;;;;;;;;;20.20;19.00;;;;;16.51;48.71;99924.09;5091520;28;8978;-76
2023/08/12 03:07:36;;;;;;;;;20.40;20.40;;;;;16.52;48.69;99925.81;5073070;28;9043;-77
2023/08/12 03:10:06;;;;;;;;;25.40;23.60;;;;;16.47;48.51;99925.13;5091012;28;8824;-77
2023/08/12 03:12:36;;;;;;;;;21.00;18.60;;;;;16.45;49.02;99926.13;5119037;27;8899;-77
2023/08/12 03:15:09;;;;;;;;;17.00;17.00;;;;;16.43;49.00;99927.00;5094084;28;8837;-76
2023/08/12 03:17:39;;;;;;;;;18.40;17.40;;;;;16.44;48.86;99935.88;5128414;27;8865;-80
2023/08/12 03:20:09;;;;;;;;;21.00;19.60;;;;;16.41;49.12;99931.50;5110745;28;8841;-79
2023/08/12 03:22:39;;;;;;;;;18.00;16.80;;;;;16.40;49.11;99927.13;5111248;28;9476;-77
2023/08/12 03:25:14;;;;;;;;;20.60;20.60;;;;;16.41;49.19;99931.50;5111366;28;8853;-76
2023/08/12 03:27:45;;;;;;;;;21.20;20.80;;;;;16.37;49.42;99935.19;5092616;28;8853;-79
2023/08/12 03:30:15;;;;;;;;;20.60;20.40;;;;;16.35;49.42;99931.75;5097393;28;9018;-76
2023/08/12 03:32:45;;;;;;;;;27.40;27.00;;;;;16.31;49.47;99929.28;5071703;28;8943;-77
2023/08/12 03:35:15;;;;;;;;;34.00;32.50;;;;;16.31;49.89;99926.63;5088712;28;8991;-77
2023/08/12 03:37:47;;;;;;;;;26.40;25.40;;;;;16.29;49.76;99929.34;5016417;28;8850;-77
2023/08/12 03:40:17;;;;;;;;;18.60;18.60;;;;;16.26;49.80;99924.13;4989096;28;9645;-78
2023/08/12 03:42:46;;;;;;;;;22.40;20.60;;;;;16.26;49.84;99925.94;5005863;28;8852;-76
2023/08/12 03:45:18;;;;;;;;;19.00;17.20;;;;;16.23;49.82;99924.28;4998790;28;8859;-79
2023/08/12 03:47:47;;;;;;;;;19.40;19.00;;;;;16.15;50.01;99923.69;4953907;28;9008;-77
2023/08/12 03:50:17;;;;;;;;;25.40;24.60;;;;;16.08;50.36;99922.19;4969347;28;8882;-77
2023/08/12 03:52:45;;;;;;;;;37.50;33.25;;;;;16.07;50.53;99925.78;4899764;29;8992;-77
2023/08/12 03:55:15;;;;;;;;;23.20;21.40;;;;;15.98;50.62;99933.16;4947363;29;8874;-79
2023/08/12 03:57:44;;;;;;;;;19.40;19.20;;;;;16.06;50.29;99929.34;4923241;28;8850;-77
2023/08/12 04:00:13;;;;;;;;;18.20;17.20;;;;;16.08;50.41;99930.13;4934787;28;8853;-78
2023/08/12 04:02:44;;;;;;;;;22.00;19.00;;;;;16.07;50.84;99939.88;4918342;28;8925;-77
2023/08/12 04:05:13;;;;;;;;;25.40;22.80;;;;;16.05;50.44;99951.50;4891370;29;8928;-77
2023/08/12 04:07:41;;;;;;;;;105.75;99.50;;;;;16.11;50.66;99951.25;4939964;29;8869;-76
2023/08/12 04:10:11;;;;;;;;;25.00;23.20;;;;;16.09;50.72;99948.66;4983953;28;11225;-76
2023/08/12 04:12:41;;;;;;;;;21.00;20.00;;;;;16.15;50.52;99948.44;5026749;28;8873;-76
2023/08/12 04:15:11;;;;;;;;;22.60;21.40;;;;;16.22;50.45;99939.31;5027578;28;8849;-78
2023/08/12 04:17:40;;;;;;;;;19.80;18.40;;;;;16.27;50.10;99940.94;5014998;28;8864;-76
2023/08/12 04:20:12;;;;;;;;;18.60;18.40;;;;;16.30;50.05;99944.31;5028216;28;8874;-79
2023/08/12 04:22:41;;;;;;;;;19.20;17.60;;;;;16.29;50.16;99942.59;5045500;28;8863;-77
2023/08/12 04:25:10;;;;;;;;;18.40;18.40;;;;;16.40;50.09;99942.19;5048221;28;8852;-78
2023/08/12 04:27:38;;;;;;;;;71.75;61.00;;;;;16.11;50.47;99941.50;5049053;28;8841;-76
2023/08/12 04:30:09;;;;;;;;;26.00;26.00;;;;;16.23;50.27;99942.84;5049452;28;8848;-75
2023/08/12 04:32:38;;;;;;;;;18.80;17.40;;;;;16.22;50.22;99938.44;5045399;28;8846;-76
2023/08/12 04:35:10;;;;;;;;;25.40;23.00;;;;;16.25;50.47;99942.75;5068886;28;8862;-76
2023/08/12 04:37:41;;;;;;;;;25.00;25.00;;;;;16.39;50.18;99936.00;5085377;28;8846;-76
2023/08/12 04:40:11;;;;;;;;;68.50;55.25;;;;;16.51;49.95;99936.47;5052034;28;8846;-78
2023/08/12 04:42:40;;;;;;;;;18.50;15.25;;;;;16.56;49.69;99939.81;5069057;28;8892;-76
2023/08/12 04:45:11;;;;;;;;;32.60;30.60;;;;;16.63;49.53;99943.13;5077379;28;8977;-76
2023/08/12 04:47:40;;;;;;;;;21.60;20.40;;;;;16.56;49.44;99946.00;5088846;28;8882;-79
2023/08/12 04:50:10;;;;;;;;;20.40;19.60;;;;;16.68;49.35;99946.44;5098931;27;8943;-78
2023/08/12 04:52:39;;;;;;;;;24.40;22.60;;;;;16.75;49.05;99951.44;5100808;28;8861;-77
2023/08/12 04:55:11;;;;;;;;;18.80;17.20;;;;;16.55;49.15;99957.56;5103790;28;8937;-78
2023/08/12 04:57:40;;;;;;;;;20.00;18.40;;;;;16.62;49.50;99950.19;5109046;28;8868;-80
2023/08/12 05:00:10;;;;;;;;;21.40;19.60;;;;;16.23;50.22;99956.97;5108012;28;8856;-77
2023/08/12 05:02:39;;;;;;;;;19.40;19.40;;;;;16.41;49.96;99957.19;5088168;28;9521;-79
2023/08/12 05:05:09;;;;;;;;;21.80;20.20;;;;;16.41;49.95;99962.47;5073107;27;8916;-80
2023/08/12 05:07:38;;;;;;;;;22.60;18.20;;;;;16.42;49.76;99959.78;5108840;28;8833;-79
2023/08/12 05:10:11;;;;;;;;;21.80;20.60;;;;;16.72;49.41;99958.66;5109857;28;8860;-79
2023/08/12 05:12:40;;;;;;;;;22.00;21.80;;;;;16.71;49.48;99957.78;5109734;28;8917;-79
2023/08/12 05:15:10;;;;;;;;;21.60;20.60;;;;;16.90;49.28;99960.56;5057650;28;8849;-78
2023/08/12 05:17:38;;;;;;;;;22.60;21.20;;;;;17.17;48.78;99957.69;5126202;27;8841;-79
2023/08/12 05:20:11;;;;;;;;;19.40;15.80;;;;;17.28;48.14;99957.28;5107868;27;8868;-79
2023/08/12 05:22:39;;;;;;;;;20.00;19.20;;;;;17.47;47.57;99960.88;5088145;28;8867;-78
2023/08/12 05:25:10;;;;;;;;;16.80;16.80;;;;;17.64;47.10;99959.28;5104566;28;8824;-79
2023/08/12 05:27:39;;;;;;;;;18.20;16.80;;;;;17.50;47.09;99959.91;5089281;28;8848;-77
2023/08/12 05:30:08;;;;;;;;;18.40;16.40;;;;;17.68;47.02;99959.09;5089943;28;8924;-78
2023/08/12 05:32:37;;;;;;;;;18.00;18.00;;;;;17.82;46.64;99957.63;5053329;28;8920;-77
2023/08/12 05:35:07;;;;;;;;;17.60;16.20;;;;;17.90;46.56;99964.31;5089369;28;8997;-77
2023/08/12 05:37:35;;;;;;;;;17.80;16.80;;;;;18.09;46.14;99966.19;5095057;28;8959;-78
2023/08/12 05:40:08;;;;;;;;;22.40;21.80;;;;;18.18;45.76;99964.91;5109467;28;8848;-77
2023/08/12 05:42:38;;;;;;;;;17.40;17.00;;;;;18.34;45.59;99965.91;5073903;28;8896;-77
2023/08/12 05:45:08;;;;;;;;;16.60;15.80;;;;;18.43;45.33;99968.16;5108961;28;8838;-78
2023/08/12 05:47:37;;;;;;;;;19.40;17.20;;;;;18.55;45.16;99964.94;5108000;28;8988;-78
2023/08/12 05:50:07;;;;;;;;;17.60;17.20;;;;;18.48;45.32;99970.63;5092272;28;8852;-78
2023/08/12 05:52:36;;;;;;;;;18.00;16.80;;;;;18.56;45.41;99965.78;5052857;27;8867;-77
2023/08/12 05:55:06;;;;;;;;;20.40;17.60;;;;;18.64;44.71;99963.59;5109574;28;8833;-77
2023/08/12 05:57:35;;;;;;;;;23.40;22.80;;;;;18.22;45.69;99977.16;5057111;28;8871;-77
2023/08/12 06:00:07;;;;;;;;;20.20;17.80;;;;;18.46;45.75;99969.78;5091436;28;8855;-78
2023/08/12 06:02:38;;;;;;;;;21.60;19.60;;;;;18.61;45.08;99977.09;5099155;28;8869;-75
2023/08/12 06:05:09;;;;;;;;;21.20;19.20;;;;;18.42;45.57;99970.88;5099570;28;8837;-76
2023/08/12 06:07:37;;;;;;;;;21.00;19.00;;;;;17.93;46.64;99968.63;5096426;28;8922;-76
2023/08/12 06:10:07;;;;;;;;;22.00;20.80;;;;;18.19;46.36;99971.94;5107878;28;8825;-75
2023/08/12 06:12:36;;;;;;;;;23.00;18.60;;;;;17.81;47.01;99974.50;5090780;28;8978;-77
2023/08/12 06:15:07;;;;;;;;;19.60;18.80;;;;;18.27;46.80;99976.00;5106204;28;8929;-75
2023/08/12 06:17:36;;;;;;;;;20.20;20.20;;;;;18.01;46.73;99971.84;5105040;28;8845;-73
2023/08/12 06:20:06;;;;;;;;;21.20;21.20;;;;;18.17;46.05;99974.69;5082671;28;8832;-73
2023/08/12 06:22:35;;;;;;;;;18.80;17.20;;;;;17.86;47.54;99972.53;5088035;28;8828;-74
2023/08/12 06:25:05;;;;;;;;;24.00;22.40;;;;;18.13;46.98;99973.09;5088345;28;8870;-72
2023/08/12 06:27:33;;;;;;;;;19.20;18.60;;;;;18.18;46.89;99975.56;5108067;28;8860;-72
2023/08/12 06:30:02;;;;;;;;;22.40;22.20;;;;;17.72;47.67;99975.75;5104524;28;8830;-73
2023/08/12 06:32:34;;;;;;;;;20.40;20.40;;;;;17.64;48.40;99981.41;5082489;28;8888;-72
2023/08/12 06:35:04;;;;;;;;;22.20;21.20;;;;;17.36;49.01;99981.75;5107573;28;8857;-73
2023/08/12 06:37:32;;;;;;;;;23.00;21.20;;;;;17.36;49.35;99984.41;5108036;28;8859;-72
2023/08/12 06:40:01;;;;;;;;;22.60;22.20;;;;;17.86;48.19;99978.69;5098256;28;8853;-72
2023/08/12 06:42:30;;;;;;;;;21.60;21.00;;;;;18.01;47.51;99981.63;5107207;28;8893;-72
2023/08/12 06:45:01;;;;;;;;;21.00;19.00;;;;;18.00;47.77;99983.38;5055546;28;8893;-73
2023/08/12 06:47:31;;;;;;;;;24.20;22.80;;;;;18.19;47.78;99979.94;5094034;28;8874;-71
2023/08/12 06:50:01;;;;;;;;;20.60;20.20;;;;;18.44;46.71;99980.53;5088589;28;8844;-75
2023/08/12 06:52:30;;;;;;;;;23.00;21.60;;;;;17.91;47.91;99975.81;5087492;28;8940;-75
2023/08/12 06:54:59;;;;;;;;;21.60;20.60;;;;;17.90;48.45;99980.28;5078978;28;8889;-74
2023/08/12 06:57:28;;;;;;;;;23.80;22.00;;;;;17.98;48.31;99988.78;5086376;28;8889;-73
2023/08/12 06:59:57;;;;;;;;;26.40;24.80;;;;;17.50;50.22;99995.31;5086037;28;8876;-76
2023/08/12 07:02:26;;;;;;;;;20.00;19.00;;;;;17.87;49.27;99991.06;5108571;28;8883;-74
2023/08/12 07:04:54;;;;;;;;;20.00;18.20;;;;;18.24;48.35;99992.09;5098397;28;8852;-77
2023/08/12 07:07:25;;;;;;;;;21.20;19.40;;;;;18.48;47.52;99987.44;5096122;28;8857;-76
2023/08/12 07:09:54;;;;;;;;;19.20;19.20;;;;;18.78;46.87;99984.25;5099529;28;8898;-75
2023/08/12 07:12:22;;;;;;;;;20.80;18.40;;;;;19.17;46.16;99983.25;5107426;28;8895;-72
2023/08/12 07:14:51;;;;;;;;;14.20;11.20;;;;;19.33;45.29;99984.22;5111801;28;8837;-74
2023/08/12 07:17:20;;;;;;;;;18.60;16.40;;;;;18.40;47.37;99986.91;5109961;27;9610;-72
2023/08/12 07:19:49;;;;;;;;;16.60;15.40;;;;;18.50;47.00;99985.56;5092727;28;8895;-72
2023/08/12 07:22:20;;;;;;;;;18.60;18.60;;;;;18.39;47.73;99995.00;5094465;28;8855;-77
2023/08/12 07:24:52;;;;;;;;;20.40;20.00;;;;;18.58;47.59;99995.84;5091186;28;8852;-74
2023/08/12 07:27:20;;;;;;;;;26.40;25.40;;;;;19.02;46.61;99986.69;5091028;28;8878;-74
2023/08/12 07:29:49;;;;;;;;;21.20;21.20;;;;;19.39;45.86;99990.19;5091337;28;9642;-76
2023/08/12 07:32:18;;;;;;;;;18.00;17.80;;;;;19.88;45.00;99991.22;5089461;28;8848;-74
2023/08/12 07:34:47;;;;;;;;;17.40;17.40;;;;;19.82;44.78;99994.22;5092919;28;8916;-75
2023/08/12 07:37:16;;;;;;;;;18.00;16.80;;;;;20.19;44.01;99984.22;5105280;28;8892;-75
2023/08/12 07:39:45;;;;;;;;;16.80;16.40;;;;;19.57;44.98;99994.59;5090464;28;8839;-77
2023/08/12 07:42:15;;;;;;;;;16.80;16.80;;;;;19.30;45.28;99996.84;5106931;28;8982;-76
2023/08/12 07:44:44;;;;;;;;;16.80;16.80;;;;;19.51;45.04;99993.09;5074871;28;9638;-75
2023/08/12 07:47:13;;;;;;;;;16.20;15.40;;;;;19.20;45.84;99991.13;5082599;28;8878;-76
2023/08/12 07:49:42;;;;;;;;;19.00;18.20;;;;;19.78;44.12;99981.09;5088204;28;8830;-73
2023/08/12 07:52:14;;;;;;;;;18.80;17.80;;;;;19.80;44.32;99990.75;5033604;28;8840;-77
2023/08/12 07:54:43;;;;;;;;;17.40;16.40;;;;;19.78;44.45;99987.28;5082148;28;8935;-76
2023/08/12 07:57:11;;;;;;;;;21.20;19.80;;;;;19.66;44.96;99990.59;5087860;28;8850;-75
2023/08/12 07:59:42;;;;;;;;;19.00;17.80;;;;;20.00;44.39;99986.16;5087312;28;8822;-76
2023/08/12 08:02:11;;;;;;;;;16.00;16.00;;;;;19.62;45.25;99989.91;5053030;28;8822;-73
2023/08/12 08:04:41;;;;;;;;;19.40;17.60;;;;;19.69;45.09;99988.66;5087955;28;8861;-75
2023/08/12 08:07:10;;;;;;;;;20.40;18.60;;;;;19.67;45.44;99987.88;5070706;28;8877;-76
2023/08/12 08:09:39;;;;;;;;;15.60;15.00;;;;;19.84;45.20;99989.66;5052998;28;9988;-76
2023/08/12 08:12:09;;;;;;;;;13.80;13.80;;;;;20.25;44.42;99991.06;5086931;28;8846;-75
2023/08/12 08:14:39;;;;;;;;;17.60;15.40;;;;;20.58;43.47;99984.84;5087561;28;8830;-71
2023/08/12 08:17:09;;;;;;;;;15.00;14.60;;;;;20.94;41.38;99984.59;5086703;28;8845;-73
2023/08/12 08:19:38;;;;;;;;;11.60;11.60;;;;;21.16;40.41;99980.66;5070292;28;8838;-73
2023/08/12 08:22:07;;;;;;;;;14.00;14.00;;;;;21.48;38.66;99977.91;5053685;28;8859;-75
2023/08/12 08:24:36;;;;;;;;;14.40;13.80;;;;;21.76;38.24;99982.50;5090007;27;8836;-74
2023/08/12 08:27:05;;;;;;;;;15.00;14.40;;;;;21.91;37.99;99981.56;5089884;28;8902;-76
2023/08/12 08:29:34;;;;;;;;;14.60;14.20;;;;;22.10;38.01;99986.63;5120318;27;8856;-73
2023/08/12 08:32:02;;;;;;;;;16.20;16.20;;;;;22.27;37.93;99982.94;5092444;28;8849;-73
2023/08/12 08:34:33;;;;;;;;;10.80;10.80;;;;;22.44;35.75;99981.00;5109278;28;8849;-75
2023/08/12 08:37:02;;;;;;;;;13.20;12.60;;;;;22.60;35.07;99987.13;5110141;28;8879;-73
2023/08/12 08:39:31;;;;;;;;;14.80;13.20;;;;;22.32;35.34;99988.00;5110030;27;8921;-75
2023/08/12 08:42:00;;;;;;;;;13.60;13.40;;;;;22.59;34.89;99991.59;5109088;28;8863;-74
2023/08/12 08:44:32;;;;;;;;;19.40;18.60;;;;;22.47;35.04;99980.78;5108733;28;8905;-76
2023/08/12 08:47:03;;;;;;;;;15.00;15.00;;;;;21.87;36.42;99982.69;5109527;28;8875;-74
2023/08/12 08:49:35;;;;;;;;;15.80;15.60;;;;;22.34;36.42;99983.41;5086978;28;8856;-72
2023/08/12 08:52:04;;;;;;;;;17.60;16.60;;;;;22.56;35.09;99980.22;5089457;28;8851;-76
2023/08/12 08:54:35;;;;;;;;;16.40;15.80;;;;;22.60;34.41;99985.28;5089474;28;8859;-73
2023/08/12 08:57:04;;;;;;;;;14.60;14.60;;;;;22.34;35.35;99980.75;5069485;28;8925;-75
2023/08/12 08:59:43;;;;;;;;;14.00;14.00;;;;;22.38;33.39;99979.56;5089600;28;8835;-74
2023/08/12 09:02:18;;;;;;;;;10.80;10.80;;;;;22.75;32.83;99974.50;5089257;28;8988;-76
2023/08/12 09:04:48;;;;;;;;;9.80;9.80;;;;;22.73;31.22;99976.44;5088123;28;8940;-74
2023/08/12 09:07:17;;;;;;;;;7.40;7.40;;;;;22.98;30.00;99979.28;5089214;28;8906;-75
2023/08/12 09:09:49;;;;;;;;;9.60;9.60;;;;;23.12;31.05;99974.81;5089137;28;8866;-75
2023/08/12 09:12:19;;;;;;;;;12.00;12.00;;;;;23.24;30.98;99978.50;5071147;28;8870;-74
2023/08/12 09:14:48;;;;;;;;;9.00;9.00;;;;;23.34;29.68;99977.78;5096262;28;8853;-75
2023/08/12 09:17:17;;;;;;;;;9.60;7.00;;;;;23.43;29.89;99975.41;5108245;28;8849;-72
2023/08/12 09:19:46;;;;;;;;;11.40;10.40;;;;;23.34;29.70;99975.09;5108143;28;8859;-75
2023/08/12 09:22:16;;;;;;;;;10.00;9.00;;;;;23.47;29.55;99975.13;5109919;28;8946;-72
2023/08/12 09:24:45;;;;;;;;;9.00;9.00;;;;;23.49;29.77;99969.66;5096366;28;8848;-75
2023/08/12 09:27:18;;;;;;;;;9.20;9.20;;;;;23.49;29.89;99969.66;5090026;28;8852;-73
2023/08/12 09:29:47;;;;;;;;;10.40;10.00;;;;;23.37;29.68;99961.47;5107129;27;9558;-75
2023/08/12 09:32:20;;;;;;;;;10.20;9.60;;;;;23.53;30.20;99964.00;5104040;28;9589;-74
2023/08/12 09:34:52;;;;;;;;;10.00;10.00;;;;;23.61;29.63;99966.16;5088185;28;8864;-73
2023/08/12 09:37:24;;;;;;;;;11.20;11.20;;;;;23.54;29.73;99965.69;5069052;28;9643;-72
2023/08/12 09:39:53;;;;;;;;;8.60;8.60;;;;;23.57;29.70;99954.75;5085132;28;8851;-76
2023/08/12 09:42:22;;;;;;;;;12.60;12.60;;;;;23.80;30.21;99957.69;5087214;28;8856;-73
2023/08/12 09:44:51;;;;;;;;;12.20;12.20;;;;;23.85;30.94;99962.75;5082264;28;8848;-71
2023/08/12 09:47:20;;;;;;;;;9.60;9.60;;;;;23.90;30.53;99953.41;5106064;28;8882;-75
2023/08/12 09:49:50;;;;;;;;;14.00;14.00;;;;;24.09;30.43;99955.63;5107516;28;9997;-75
2023/08/12 09:52:18;;;;;;;;;12.40;12.40;;;;;24.04;28.27;99955.09;5078706;28;8857;-75
2023/08/12 09:54:50;;;;;;;;;11.60;11.60;;;;;23.88;28.20;99949.94;5101618;28;8865;-74
2023/08/12 09:57:23;;;;;;;;;12.60;12.60;;;;;23.96;29.16;99952.06;5110070;28;8880;-76
2023/08/12 09:59:54;;;;;;;;;11.80;11.80;;;;;23.95;28.90;99951.22;5099628;28;8848;-74
2023/08/12 10:02:24;;;;;;;;;11.60;11.60;;;;;24.02;29.68;99948.97;5103869;28;8923;-77
2023/08/12 10:04:56;;;;;;;;;14.00;12.80;;;;;24.08;29.01;99948.53;5067699;28;8833;-76
2023/08/12 10:07:26;;;;;;;;;12.00;11.60;;;;;24.05;29.30;99950.56;5088487;28;8859;-75
2023/08/12 10:09:57;;;;;;;;;11.80;11.20;;;;;24.13;28.89;99949.09;5088684;28;8948;-74
2023/08/12 10:12:26;;;;;;;;;8.80;8.80;;;;;24.26;27.88;99937.47;5087790;28;8874;-74
2023/08/12 10:14:55;;;;;;;;;10.80;10.80;;;;;24.20;29.52;99945.97;5088383;28;8897;-76
2023/08/12 10:17:25;;;;;;;;;13.00;12.20;;;;;24.37;30.42;99939.38;5098275;28;8865;-80
2023/08/12 10:20:14;;;;;;;;;12.40;11.00;;;;;24.27;30.10;99939.19;5070231;28;8906;-75
2023/08/12 10:22:45;;;;;;;;;13.60;13.60;;;;;24.32;30.15;99928.94;5087841;28;8957;-78
2023/08/12 10:25:15;;;;;;;;;13.20;13.20;;;;;24.43;29.81;99929.03;5087618;28;8968;-75
2023/08/12 10:27:44;;;;;;;;;10.60;9.80;;;;;24.49;27.27;99933.97;5069320;28;8884;-75
2023/08/12 10:30:14;;;;;;;;;15.00;15.00;;;;;24.34;28.19;99922.50;5087585;28;8867;-75
2023/08/12 10:32:44;;;;;;;;;15.20;15.20;;;;;24.43;28.49;99929.03;5087882;28;8864;-75
2023/08/12 10:35:13;;;;;;;;;13.20;13.20;;;;;24.51;28.16;99928.50;5086603;27;8851;-76
2023/08/12 10:37:42;;;;;;;;;12.40;11.20;;;;;24.48;28.19;99921.50;5097773;28;8837;-76
2023/08/12 10:40:23;;;;;;;;;10.00;10.00;;;;;24.62;27.50;99923.19;5095991;28;8890;-76
2023/08/12 10:42:52;;;;;;;;;12.80;11.00;;;;;24.73;28.84;99919.72;5093601;28;9704;-75
2023/08/12 10:45:21;;;;;;;;;11.60;11.00;;;;;24.75;28.17;99915.06;5089995;28;8825;-78
2023/08/12 10:48:10;;;;;;;;;12.60;12.20;;;;;24.78;29.74;99908.63;5111558;28;8865;-81
2023/08/12 10:50:45;;;;;;;;;11.40;10.00;;;;;24.60;29.63;99906.28;5100517;28;8953;-77
2023/08/12 10:53:31;;;;;;;;;12.80;11.60;;;;;24.55;28.61;99911.16;5106856;27;8853;-78
2023/08/12 10:56:04;;;;;;;;;12.60;12.60;;;;;24.61;28.33;99904.47;5113203;28;8849;-78
2023/08/12 10:58:36;;;;;;;;;13.20;13.20;;;;;24.76;29.75;99908.75;5128532;27;8929;-75
2023/08/12 11:01:14;;;;;;;;;13.20;13.20;;;;;24.96;29.64;99909.91;5112095;28;9648;-75
2023/08/12 11:03:44;;;;;;;;;12.20;12.20;;;;;24.97;29.23;99906.25;5108586;28;8871;-72
2023/08/12 11:06:13;;;;;;;;;13.80;12.80;;;;;25.05;29.02;99898.44;5091371;28;8862;-72
2023/08/12 11:08:47;;;;;;;;;11.40;11.40;;;;;25.12;28.29;99901.53;5091226;28;8898;-74
2023/08/12 11:11:23;;;;;;;;;15.00;13.60;;;;;25.34;28.51;99895.41;5094654;28;8844;-71
2023/08/12 11:13:54;;;;;;;;;10.60;10.40;;;;;25.50;27.42;99903.13;5111615;28;8975;-74
2023/08/12 11:16:35;;;;;;;;;10.80;10.00;;;;;25.61;28.24;99899.59;5100031;28;8859;-72
2023/08/12 11:19:05;;;;;;;;;11.40;11.40;;;;;25.61;28.23;99894.22;5108784;28;8872;-74
2023/08/12 11:21:37;;;;;;;;;12.60;11.60;;;;;25.75;28.08;99899.34;5110543;28;8837;-73
2023/08/12 11:24:06;;;;;;;;;3.00;0.40;;;;;25.70;26.92;99890.81;5111048;28;9615;-73
2023/08/12 11:26:38;;;;;;;;;10.80;10.80;;;;;25.67;26.27;99904.50;5097580;28;8870;-72
2023/08/12 11:29:10;;;;;;;;;11.00;10.60;;;;;25.80;26.84;99899.84;5107199;28;8873;-73
2023/08/12 11:31:39;;;;;;;;;10.00;10.00;;;;;26.00;26.69;99900.13;5058285;28;9000;-73
2023/08/12 11:34:07;;;;;;;;;5.80;4.60;;;;;26.01;25.19;99891.06;5109298;28;8872;-74
2023/08/12 11:36:37;;;;;;;;;11.00;11.00;;;;;26.10;24.88;99893.03;5098353;28;8849;-73
2023/08/12 11:39:05;;;;;;;;;11.80;11.20;;;;;26.18;24.79;99890.56;5110725;28;8971;-73
2023/08/12 11:41:36;;;;;;;;;2.60;2.60;;;;;26.29;24.06;99882.47;5097816;28;8875;-75